Time;durP1;ratioP1;P1;durP2;ratioP2;P2;SDS_P1;SDS_P2;PMS_P1;PMS_P2;Temp;Humidity;BMP_temperature;BMP_pressure;BME280_temperature;BME280_humidity;BME280_pressure;Samples;Min_cycle;Max_cycle;Signal;HPM_P1;HPM_P2
2022/02/26 00:02:38;;;;;;;49.03;9.10;;;;;;;8.54;60.72;102146.53;4798875;29;120776;-87
2022/02/26 00:05:09;;;;;;;58.15;9.75;;;;;;;8.27;60.98;102115.41;4813535;29;119473;-86
2022/02/26 00:07:45;;;;;;;53.88;10.50;;;;;;;8.38;61.23;102148.97;4797734;29;120487;-86
2022/02/26 00:10:11;;;;;;;50.67;9.35;;;;;;;8.32;60.74;102147.81;4799594;29;121271;-86
2022/02/26 00:12:37;;;;;;;51.78;9.80;;;;;;;8.44;61.03;102166.50;4784394;29;120568;-87
2022/02/26 00:15:10;;;;;;;53.83;9.52;;;;;;;8.31;61.38;102149.75;4794250;29;120817;-84
2022/02/26 00:17:44;;;;;;;47.65;9.95;;;;;;;8.55;61.44;102197.31;4811783;29;121254;-87
2022/02/26 00:20:11;;;;;;;51.17;9.23;;;;;;;8.36;61.87;102177.88;4795798;29;119893;-88
2022/02/26 00:22:47;;;;;;;50.25;8.88;;;;;;;8.47;60.83;102205.94;4797835;29;120836;-89
2022/02/26 00:25:34;;;;;;;;;;;;;;;8.65;60.88;102238.69;4797983;29;119763;-87
2022/02/26 00:28:00;;;;;;;48.03;9.60;;;;;;;8.23;61.46;102183.75;4795529;29;121350;-88
2022/02/26 00:30:31;;;;;;;46.97;8.57;;;;;;;8.19;61.72;102174.03;4797152;29;121951;-88
2022/02/26 00:33:04;;;;;;;50.97;8.88;;;;;;;8.40;61.38;102222.41;4797035;29;118634;-85
2022/02/26 00:35:31;;;;;;;49.43;8.93;;;;;;;8.42;61.28;102226.28;4814418;29;121749;-83
2022/02/26 00:37:58;;;;;;;48.33;9.77;;;;;;;8.42;61.30;102233.72;4815483;29;123388;-87
2022/02/26 00:40:44;;;;;;;;;;;;;;;;;;;;;
2022/02/26 00:43:13;;;;;;;53.72;13.38;;;;;;;8.31;61.27;102226.31;4814116;29;122378;-85
2022/02/26 00:45:46;;;;;;;57.75;10.48;;;;;;;8.39;61.18;102246.22;4799022;29;119375;-85
2022/02/26 00:48:12;;;;;;;50.10;8.88;;;;;;;8.55;61.19;102278.59;4795374;29;120602;-85
2022/02/26 00:50:40;;;;;;;50.67;9.88;;;;;;;8.47;61.08;102264.16;4795653;29;120515;-85
2022/02/26 00:53:11;;;;;;;52.15;10.10;;;;;;;8.21;61.13;102229.84;4793988;29;121021;-85
2022/02/26 00:55:45;;;;;;;51.25;10.10;;;;;;;8.55;61.42;102293.06;4809088;29;121251;-85
2022/02/26 00:58:13;;;;;;;49.20;9.90;;;;;;;8.29;60.83;102255.22;4794118;29;121918;-85
2022/02/26 01:00:41;;;;;;;49.60;9.73;;;;;;;8.34;60.79;102265.00;4778296;29;119892;-85
2022/02/26 01:03:10;;;;;;;51.17;9.10;;;;;;;8.29;60.79;102268.91;4811819;29;121997;-86
2022/02/26 01:05:36;;;;;;;49.03;9.35;;;;;;;8.20;60.87;102263.06;4813850;29;120109;-86
2022/02/26 01:08:12;;;;;;;;;;;;;;;;;;;;;
2022/02/26 01:10:57;;;;;;;46.88;8.98;;;;;;;8.24;60.92;102283.72;4795321;29;119678;-85
2022/02/26 01:13:27;;;;;;;54.72;9.85;;;;;;;8.04;60.99;102259.97;4806772;29;120061;-85
2022/02/26 01:15:57;;;;;;;40.42;9.35;;;;;;;8.27;60.29;102304.03;4793917;29;121251;-87
2022/02/26 01:18:25;;;;;;;41.30;8.75;;;;;;;8.21;61.43;102298.19;4792809;29;121835;-86
2022/02/26 01:21:11;;;;;;;42.78;8.68;;;;;;;7.98;60.98;102265.06;4797415;29;119704;-85
2022/02/26 01:23:37;;;;;;;46.17;7.60;;;;;;;7.99;60.93;102270.13;4811764;29;122043;-83
2022/02/26 01:26:13;;;;;;;39.55;8.80;;;;;;;7.93;60.55;102274.44;4811729;29;121954;-86
2022/02/26 01:28:44;;;;;;;50.05;8.10;;;;;;;8.39;60.62;102352.09;4814402;29;119378;-85
2022/02/26 01:31:25;;;;;;;46.25;8.70;;;;;;;8.18;60.64;102322.81;4781548;29;121688;-85
2022/02/26 01:34:03;;;;;;;;;;;;;;;;;;;;;
2022/02/26 01:36:35;;;;;;;57.80;9.90;;;;;;;8.15;60.84;102321.66;4799140;29;121074;-86
2022/02/26 01:39:07;;;;;;;49.65;9.38;;;;;;;7.92;60.73;102297.47;4812281;29;120481;-84
2022/02/26 01:41:37;;;;;;;51.58;8.93;;;;;;;7.92;60.69;102302.94;4782293;29;119409;-84
2022/02/26 01:44:08;;;;;;;53.95;8.57;;;;;;;7.90;60.64;102309.97;4830591;29;120091;-86
2022/02/26 01:46:55;;;;;;;43.47;8.93;;;;;;;7.87;60.83;102324.41;4795003;29;121522;-87
2022/02/26 01:49:28;;;;;;;43.28;8.88;;;;;;;7.88;60.68;102334.19;4811403;29;119955;-84
2022/02/26 01:51:59;;;;;;;46.08;8.13;;;;;;;7.94;60.67;102349.00;4800028;29;119311;-87
2022/02/26 01:54:30;;;;;;;50.95;9.13;;;;;;;7.99;60.38;102378.66;4811402;29;119812;-86
2022/02/26 01:56:59;;;;;;;49.85;8.60;;;;;;;7.98;60.56;102374.38;4795998;29;120994;-86
2022/02/26 01:59:28;;;;;;;51.50;9.10;;;;;;;7.96;60.77;102382.19;4810780;29;121486;-86
2022/02/26 02:01:56;;;;;;;45.70;8.48;;;;;;;7.86;60.85;102367.34;4795982;29;119533;-86
2022/02/26 02:04:32;;;;;;;44.45;8.73;;;;;;;8.09;60.04;102410.69;4796835;29;121137;-85
2022/02/26 02:07:01;;;;;;;46.85;8.50;;;;;;;7.77;60.02;102368.91;4788644;29;122001;-87
2022/02/26 02:09:27;;;;;;;55.92;8.80;;;;;;;7.86;60.49;102389.22;4813277;29;120626;-87
2022/02/26 02:11:59;;;;;;;45.33;8.20;;;;;;;8.13;60.10;102443.47;4799036;29;119285;-86
2022/02/26 02:14:55;;;;;;;46.00;7.85;;;;;;;8.09;60.54;102435.28;4798807;29;124059;-86
2022/02/26 02:17:23;;;;;;;40.45;7.53;;;;;;;7.55;60.67;102366.13;4782418;29;122479;-86
2022/02/26 02:19:52;;;;;;;53.22;8.23;;;;;;;7.71;60.62;102401.28;4801896;29;123149;-86
2022/02/26 02:22:42;;;;;;;43.13;7.28;;;;;;;7.80;60.79;102400.91;4778920;29;119407;-85
2022/02/26 02:25:17;;;;;;;45.67;8.30;;;;;;;7.64;60.73;102387.63;4809187;29;120904;-85
2022/02/26 02:27:44;;;;;;;45.97;8.30;;;;;;;7.80;60.81;102414.56;4780347;29;122703;-85
2022/02/26 02:30:13;;;;;;;45.40;8.13;;;;;;;7.69;60.88;102414.56;4797908;29;119547;-85
2022/02/26 02:32:46;;;;;;;42.22;7.55;;;;;;;7.98;61.45;102459.09;4809947;29;122000;-85
2022/02/26 02:35:37;;;;;;;44.60;8.25;;;;;;;7.95;60.84;102455.19;4795952;29;120700;-85
2022/02/26 02:38:08;;;;;;;45.35;8.48;;;;;;;7.39;61.26;102376.66;4796705;29;119475;-86
2022/02/26 02:40:35;;;;;;;40.38;7.85;;;;;;;7.54;60.72;102415.69;4810167;29;121699;-84
2022/02/26 02:43:10;;;;;;;53.88;8.52;;;;;;;7.48;60.90;102407.09;4796375;29;119618;-85
2022/02/26 02:45:39;;;;;;;43.03;7.65;;;;;;;7.39;61.24;102396.56;4796147;29;120950;-87
2022/02/26 02:48:05;;;;;;;47.72;8.18;;;;;;;7.50;61.13;102412.16;4811075;29;120269;-84
2022/02/26 02:50:37;;;;;;;51.67;8.68;;;;;;;7.78;61.43;102466.84;4812826;29;120694;-85
2022/02/26 02:53:07;;;;;;;48.47;8.50;;;;;;;7.64;60.99;102450.44;4811113;29;119308;-83
2022/02/26 02:55:36;;;;;;;42.00;7.80;;;;;;;7.51;60.82;102435.59;4795786;29;121619;-83
2022/02/26 02:58:02;;;;;;;46.05;8.18;;;;;;;7.39;60.97;102426.59;4801981;29;119422;-86
2022/02/26 03:00:34;;;;;;;47.08;8.38;;;;;;;7.61;61.45;102453.97;4795431;29;121872;-85
2022/02/26 03:03:07;;;;;;;49.55;8.02;;;;;;;7.35;61.45;102425.03;4808078;29;119477;-85
2022/02/26 03:05:33;;;;;;;41.15;7.60;;;;;;;7.42;60.69;102435.97;4786274;29;122120;-85
2022/02/26 03:08:03;;;;;;;49.25;7.82;;;;;;;7.48;60.86;102453.53;4795201;29;123256;-85
2022/02/26 03:10:32;;;;;;;53.65;8.48;;;;;;;7.22;60.74;102424.56;4792412;29;119693;-85
2022/02/26 03:13:01;;;;;;;42.85;8.38;;;;;;;7.20;61.14;102435.09;4805849;29;120818;-84
2022/02/26 03:15:42;;;;;;;41.55;8.10;;;;;;;7.33;60.89;102463.63;4811188;29;121858;-85
2022/02/26 03:18:10;;;;;;;40.25;8.32;;;;;;;7.31;61.40;102465.16;4802853;29;120669;-84
2022/02/26 03:20:46;;;;;;;48.92;8.63;;;;;;;7.58;60.69;102512.09;4812197;29;120399;-86
2022/02/26 03:23:30;;;;;;;43.22;7.35;;;;;;;7.06;61.12;102435.03;4807414;29;119500;-85
2022/02/26 03:25:58;;;;;;;38.92;7.57;;;;;;;7.27;61.54;102476.06;4810025;29;120753;-84
2022/02/26 03:28:29;;;;;;;45.50;7.50;;;;;;;7.27;61.07;102478.00;4808030;29;119573;-85
2022/02/26 03:30:59;;;;;;;46.33;7.90;;;;;;;7.20;61.45;102473.31;4808218;29;119406;-85
2022/02/26 03:33:27;;;;;;;46.53;7.97;;;;;;;7.08;62.30;102449.84;4808720;29;119711;-83
2022/02/26 03:35:55;;;;;;;42.53;7.32;;;;;;;7.55;61.55;102521.03;4811176;29;119320;-88
2022/02/26 03:38:26;;;;;;;38.10;7.72;;;;;;;7.15;61.42;102472.91;4796728;29;119453;-86
2022/02/26 03:41:08;;;;;;;40.90;7.43;;;;;;;7.28;61.48;102495.94;4798021;29;121870;-81
2022/02/26 03:43:38;;;;;;;42.72;8.38;;;;;;;7.54;61.91;102538.56;4801319;29;120043;-87
2022/02/26 03:46:13;;;;;;;48.42;8.25;;;;;;;7.45;61.82;102529.97;4783445;29;120391;-87
2022/02/26 03:49:00;;;;;;;43.45;8.85;;;;;;;7.04;61.81;102481.81;4788740;29;122911;-86
2022/02/26 03:51:30;;;;;;;43.80;7.78;;;;;;;7.06;61.23;102489.59;4796767;29;119568;-87
2022/02/26 03:53:56;;;;;;;42.80;8.13;;;;;;;7.52;61.87;102557.31;4812826;29;120679;-85
2022/02/26 03:56:34;;;;;;;42.35;7.43;;;;;;;7.17;61.94;102506.84;4811673;29;119594;-88
2022/02/26 03:59:10;;;;;;;50.13;7.95;;;;;;;7.49;62.17;102560.78;4811717;29;119428;-85
2022/02/26 04:01:39;;;;;;;44.65;7.63;;;;;;;6.98;61.55;102486.06;4791764;29;121877;-87
2022/02/26 04:04:10;;;;;;;44.72;7.88;;;;;;;7.22;61.84;102522.84;4812208;29;120263;-88
2022/02/26 04:06:54;;;;;;;38.55;6.60;;;;;;;7.20;62.28;102521.66;4814725;29;119658;-86
2022/02/26 04:09:29;;;;;;;39.67;6.95;;;;;;;7.54;61.75;102576.81;4797585;29;120332;-87
2022/02/26 04:12:01;;;;;;;39.70;7.43;;;;;;;7.32;61.72;102543.16;4799548;29;119223;-86
2022/02/26 04:14:27;;;;;;;44.47;8.13;;;;;;;7.20;61.74;102535.31;4811474;29;121263;-86
2022/02/26 04:17:07;;;;;;;44.22;7.60;;;;;;;7.27;61.35;102546.25;4795915;29;121377;-87
2022/02/26 04:19:56;;;;;;;44.50;6.93;;;;;;;7.05;61.79;102521.56;4784437;29;119326;-87
2022/02/26 04:22:22;;;;;;;46.85;7.18;;;;;;;7.09;61.54;102535.22;4798330;29;119413;-87
2022/02/26 04:24:51;;;;;;;41.88;7.13;;;;;;;7.50;62.06;102595.13;4795975;29;121574;-86
2022/02/26 04:27:17;;;;;;;52.83;7.57;;;;;;;7.04;62.11;102538.31;4793520;29;119951;-86
2022/02/26 04:29:52;;;;;;;44.17;7.50;;;;;;;6.92;61.95;102525.00;4810502;29;120862;-82
2022/02/26 04:32:18;;;;;;;45.90;7.40;;;;;;;6.97;61.90;102535.56;4807711;29;121057;-86
2022/02/26 04:34:53;;;;;;;41.95;8.05;;;;;;;7.08;61.51;102556.28;4778546;29;121829;-86
2022/02/26 04:37:21;;;;;;;49.40;7.68;;;;;;;7.42;61.92;102623.56;4778653;29;121968;-85
2022/02/26 04:39:50;;;;;;;40.75;7.45;;;;;;;7.18;61.41;102582.09;4808575;29;119494;-86
2022/02/26 04:42:18;;;;;;;48.28;7.68;;;;;;;6.92;62.01;102563.22;4808748;29;119412;-86
2022/02/26 04:44:49;;;;;;;43.40;8.05;;;;;;;7.32;61.60;102631.28;4793048;29;120221;-86
2022/02/26 04:47:17;;;;;;;39.42;7.28;;;;;;;7.37;61.50;102655.53;4793381;29;119359;-85
2022/02/26 04:49:44;;;;;;;41.05;7.40;;;;;;;6.80;61.42;102580.63;4796455;29;120676;-86
2022/02/26 04:52:17;;;;;;;42.00;8.30;;;;;;;6.82;61.35;102589.22;4793281;29;119454;-86
2022/02/26 04:54:46;;;;;;;43.05;7.32;;;;;;;6.91;62.00;102611.53;4793984;29;121599;-86
2022/02/26 04:57:22;;;;;;;35.83;6.60;;;;;;;6.80;61.62;102593.50;4809670;29;120298;-86
2022/02/26 04:59:50;;;;;;;42.42;6.97;;;;;;;6.95;61.38;102636.91;4809669;29;119997;-86
2022/02/26 05:02:33;;;;;;;40.47;7.07;;;;;;;7.22;61.30;102686.63;4807645;29;119488;-86
2022/02/26 05:05:05;;;;;;;40.83;7.53;;;;;;;6.91;61.73;102629.84;4811103;29;119218;-86
2022/02/26 05:07:44;;;;;;;;;;;;;;;;;;;;;
2022/02/26 05:10:13;;;;;;;47.00;7.70;;;;;;;6.86;61.31;102647.34;4826704;29;119437;-86
2022/02/26 05:12:42;;;;;;;47.53;8.80;;;;;;;7.16;61.17;102696.31;4810944;29;122809;-85
2022/02/26 05:15:11;;;;;;;44.20;9.20;;;;;;;6.62;61.40;102618.66;4792708;29;121009;-86
2022/02/26 05:17:41;;;;;;;44.60;8.02;;;;;;;6.72;61.68;102636.31;4791499;29;121660;-86
2022/02/26 05:20:14;;;;;;;45.92;8.45;;;;;;;7.07;61.35;102696.63;4792477;29;119278;-85
2022/02/26 05:22:45;;;;;;;43.80;8.25;;;;;;;7.04;61.70;102702.84;4790876;29;123077;-85
2022/02/26 05:25:14;;;;;;;47.95;8.32;;;;;;;6.82;61.71;102668.34;4787860;29;123554;-86
2022/02/26 05:27:55;;;;;;;46.85;8.32;;;;;;;6.73;61.92;102665.94;4791173;29;119310;-85
2022/02/26 05:30:27;;;;;;;42.00;7.20;;;;;;;6.81;61.89;102676.91;4806230;29;121605;-85
2022/02/26 05:32:56;;;;;;;41.05;8.18;;;;;;;6.66;61.80;102654.97;4805572;29;120404;-85
2022/02/26 05:35:35;;;;;;;;;;;;;;;;;;;;;
2022/02/26 05:38:04;;;;;;;41.25;7.07;;;;;;;6.64;62.13;102672.84;4788864;29;123400;-85
2022/02/26 05:40:33;;;;;;;39.72;7.15;;;;;;;6.81;61.51;102712.34;4797914;29;119840;-86
2022/02/26 05:43:15;;;;;;;42.25;8.25;;;;;;;6.52;61.81;102676.63;4805438;29;122342;-85
2022/02/26 05:46:02;;;;;;;;;;;;;;;;;;;;;
2022/02/26 05:48:28;;;;;;;45.13;7.03;;;;;;;6.45;61.46;102677.34;4789528;29;120594;-85
2022/02/26 05:51:02;;;;;;;42.50;7.13;;;;;;;6.75;62.05;102725.56;4773696;29;122171;-84
2022/02/26 05:53:30;;;;;;;46.17;7.22;;;;;;;6.71;61.74;102728.25;4786284;29;120236;-85
2022/02/26 05:56:20;;;;;;;38.42;6.35;;;;;;;6.87;62.22;102768.97;4793634;29;119234;-84
2022/02/26 05:59:00;;;;;;;42.90;7.50;;;;;;;6.57;61.75;102728.09;4778754;29;120372;-83
2022/02/26 06:01:44;;;;;;;41.42;6.93;;;;;;;6.82;61.88;102771.22;4791687;29;120016;-86
2022/02/26 06:04:20;;;;;;;46.97;7.93;;;;;;;6.65;61.95;102751.56;4767322;29;120614;-86
2022/02/26 06:07:03;;;;;;;38.72;7.07;;;;;;;6.54;62.35;102737.00;4794896;29;122048;-85
2022/02/26 06:09:47;;;;;;;46.45;6.43;;;;;;;6.61;62.03;102758.13;4805496;29;119500;-86
2022/02/26 06:12:38;;;;;;;37.33;6.75;;;;;;;6.81;61.50;102794.97;4804414;29;120110;-84
2022/02/26 06:15:37;;;;;;;43.45;7.03;;;;;;;6.33;62.02;102725.84;4792854;29;123178;-85
2022/02/26 06:18:28;;;;;;;;;;;;;;;;;;;;;
2022/02/26 06:21:02;;;;;;;36.45;5.43;;;;;;;6.51;61.21;102764.25;4796997;29;121508;-85
2022/02/26 06:23:48;;;;;;;;;;;;;;;;;;;;;
2022/02/26 06:26:50;;;;;;;39.67;7.10;;;;;;;6.69;60.95;102801.47;4799446;29;121717;-85
2022/02/26 06:29:41;;;;;;;33.30;5.97;;;;;;;6.64;61.10;102814.66;4800422;29;119864;-84
2022/02/26 06:32:44;;;;;;;33.65;6.10;;;;;;;6.42;61.21;102781.69;4792633;29;119789;-85
2022/02/26 06:35:15;;;;;;;31.60;5.95;;;;;;;6.28;61.07;102777.97;4796349;29;119444;-85
2022/02/26 06:38:01;;;;;;;;;;;;;;;;;;;;;
2022/02/26 06:40:30;;;;;;;31.73;7.03;;;;;;;6.03;60.89;102756.63;4810717;29;119496;-86
2022/02/26 06:43:12;;;;;;;36.80;6.13;;;;;;;5.96;61.03;102767.44;4814099;29;121222;-84
2022/02/26 06:45:53;;;;;;;34.63;6.20;;;;;;;6.44;60.77;102852.97;4808935;29;120088;-86
2022/02/26 06:48:35;;;;;;;37.78;5.63;;;;;;;5.99;60.74;102779.53;4831604;29;119273;-86
2022/02/26 06:55:24;;;;;;;41.00;6.50;;;;;;;6.08;61.36;102812.72;4788956;29;119780;-87
2022/02/26 06:58:01;;;;;;;39.75;6.63;;;;;;;6.40;62.14;102857.59;4826227;29;120696;-84
2022/02/26 07:00:30;;;;;;;43.95;11.18;;;;;;;6.23;62.42;102841.00;4824192;29;119320;-84
2022/02/26 07:03:05;;;;;;;44.00;9.30;;;;;;;6.52;62.79;102872.94;4811667;29;119714;-85
2022/02/26 07:05:50;;;;;;;33.75;7.53;;;;;;;6.27;62.43;102822.75;4813633;29;119488;-84
2022/02/26 07:08:26;;;;;;;38.50;7.07;;;;;;;6.33;62.74;102837.63;4796664;29;121693;-84
2022/02/26 07:11:02;;;;;;;41.65;8.90;;;;;;;6.33;63.05;102841.13;4806468;29;119521;-85
2022/02/26 07:13:42;;;;;;;50.08;8.65;;;;;;;6.68;62.97;102895.38;4829264;29;123399;-84
2022/02/26 07:16:34;;;;;;;48.33;8.18;;;;;;;6.32;62.82;102841.50;4810980;29;119422;-84
2022/02/26 07:19:09;;;;;;;34.25;7.35;;;;;;;6.64;63.06;102874.66;4809111;29;120687;-85
2022/02/26 07:21:56;;;;;;;31.70;7.03;;;;;;;6.86;62.91;102906.53;4819378;29;119397;-85
2022/02/26 07:24:40;;;;;;;31.40;7.32;;;;;;;6.57;62.60;102867.16;4812914;29;119279;-85
2022/02/26 07:27:17;;;;;;;38.05;7.65;;;;;;;6.73;62.35;102900.50;4824502;29;119450;-85
2022/02/26 07:30:10;;;;;;;31.67;6.88;;;;;;;6.77;62.47;102906.00;4781190;29;122207;-85
2022/02/26 07:32:39;;;;;;;37.67;7.60;;;;;;;6.52;62.67;102869.44;4812673;29;119494;-85
2022/02/26 07:35:05;;;;;;;42.15;8.18;;;;;;;6.78;62.65;102913.81;4817803;29;119646;-84
2022/02/26 07:37:32;;;;;;;48.22;8.38;;;;;;;6.99;63.25;102939.81;4823890;29;119687;-85
2022/02/26 07:40:00;;;;;;;44.00;7.97;;;;;;;6.64;62.62;102891.03;4819728;29;119499;-86
2022/02/26 07:42:39;;;;;;;42.35;7.95;;;;;;;6.76;63.17;102896.25;4804842;29;120499;-85
2022/02/26 07:45:16;;;;;;;39.55;7.72;;;;;;;6.63;63.46;102867.66;4816327;29;119684;-85
2022/02/26 07:50:34;;;;;;;37.97;7.03;;;;;;;6.83;63.27;102892.81;4805540;29;120405;-82
2022/02/26 07:53:08;;;;;;;37.22;7.40;;;;;;;7.04;63.46;102925.84;4816210;29;119708;-86
2022/02/26 07:55:39;;;;;;;46.03;7.40;;;;;;;7.39;63.46;102953.56;4816199;29;119318;-84
2022/02/26 07:58:23;;;;;;;;;;;;;;;;;;;;;
2022/02/26 08:00:55;;;;;;;41.42;8.40;;;;;;;7.19;63.56;102919.41;4819234;29;120675;-83
2022/02/26 08:03:21;;;;;;;40.58;7.93;;;;;;;7.58;63.75;102973.69;4817949;29;121980;-83
2022/02/26 08:06:02;;;;;;;;;;;;;;;;;;;;;
2022/02/26 08:08:35;;;;;;;43.33;8.07;;;;;;;7.32;62.64;102923.44;4811501;29;120755;-86
2022/02/26 08:11:02;;;;;;;50.88;8.02;;;;;;;7.35;62.96;102914.53;4817344;29;119689;-85
2022/02/26 08:13:28;;;;;;;39.83;8.02;;;;;;;7.47;63.00;102920.88;4784283;29;119707;-85
2022/02/26 08:16:04;;;;;;;46.20;7.55;;;;;;;7.55;63.04;102923.28;4818059;29;119479;-85
2022/02/26 08:18:33;;;;;;;35.97;7.20;;;;;;;8.07;62.89;103003.47;4819329;29;123510;-85
2022/02/26 08:21:02;;;;;;;35.63;7.50;;;;;;;8.15;62.89;103005.09;4818750;29;120644;-84
2022/02/26 08:23:35;;;;;;;39.08;7.55;;;;;;;7.66;62.91;102917.94;4807053;29;121620;-85
2022/02/26 08:26:05;;;;;;;32.75;6.88;;;;;;;7.89;62.79;102947.84;4820770;29;119366;-85
2022/02/26 08:28:47;;;;;;;39.95;8.13;;;;;;;7.98;62.58;102951.03;4817332;29;119636;-85
2022/02/26 08:31:29;;;;;;;35.75;6.38;;;;;;;8.30;62.69;102982.19;4798625;29;122586;-87
2022/02/26 08:33:57;;;;;;;;;;;;;;;8.54;62.49;103015.59;4802490;29;119552;-86
2022/02/26 08:36:29;;;;;;;44.25;7.15;;;;;;;8.49;62.30;102997.56;4811461;29;121796;-85
2022/02/26 08:39:09;;;;;;;32.67;6.97;;;;;;;8.50;62.32;102987.41;4809347;29;124400;-86
2022/02/26 08:41:37;;;;;;;34.40;6.63;;;;;;;8.25;61.55;102930.56;4813619;29;119628;-86
2022/02/26 08:44:06;;;;;;;34.22;6.95;;;;;;;8.38;62.00;102952.97;4816112;29;121614;-85
2022/02/26 08:46:41;;;;;;;29.00;5.70;;;;;;;8.76;61.38;103005.59;4818857;29;119051;-81
2022/02/26 08:49:10;;;;;;;37.22;6.50;;;;;;;8.66;61.53;102968.78;4812847;29;122162;-87
2022/02/26 08:51:35;;;;;;;38.75;6.25;;;;;;;8.61;60.89;102963.66;4828566;29;123293;-82
2022/02/26 08:54:02;;;;;;;36.03;5.95;;;;;;;8.71;60.60;102960.19;4797721;29;119497;-87
2022/02/26 08:56:34;;;;;;;31.30;6.38;;;;;;;9.07;60.87;103006.94;4814205;29;119538;-84
2022/02/26 08:59:03;;;;;;;32.55;5.68;;;;;;;8.96;61.60;102982.22;4814749;29;122740;-86
2022/02/26 09:01:40;;;;;;;37.03;6.75;;;;;;;8.93;61.11;102969.31;4804443;29;122062;-86
2022/02/26 09:04:14;;;;;;;32.55;6.50;;;;;;;8.95;60.71;102957.97;4820391;29;119755;-86
2022/02/26 09:06:43;;;;;;;36.85;6.75;;;;;;;8.99;60.82;102961.53;4814927;29;122668;-84
2022/02/26 09:09:16;;;;;;;26.90;5.70;;;;;;;9.05;60.48;102962.75;4804734;29;119517;-86
2022/02/26 09:11:42;;;;;;;30.80;5.68;;;;;;;9.34;60.72;102999.25;4792642;29;122956;-86
2022/02/26 09:14:10;;;;;;;27.05;5.80;;;;;;;9.33;60.02;102998.47;4808533;29;119529;-86
2022/02/26 09:16:39;;;;;;;33.92;5.90;;;;;;;9.39;59.69;103007.09;4798537;29;122236;-85
2022/02/26 09:19:12;;;;;;;31.45;6.75;;;;;;;9.31;58.81;102987.09;4816698;29;119396;-87
2022/02/26 09:21:45;;;;;;;27.58;5.60;;;;;;;9.46;59.87;103007.09;4804263;29;119814;-86
2022/02/26 09:24:11;;;;;;;32.00;6.60;;;;;;;9.37;59.22;102990.25;4821315;29;121316;-86
2022/02/26 09:26:37;;;;;;;27.83;6.47;;;;;;;9.47;58.70;102997.75;4813601;29;121317;-85
2022/02/26 09:29:11;;;;;;;25.73;5.20;;;;;;;9.55;58.56;103007.53;4806564;29;121946;-86
2022/02/26 09:31:41;;;;;;;30.55;5.78;;;;;;;9.79;59.14;103044.44;4821350;29;123045;-86
2022/02/26 09:34:09;;;;;;;31.02;6.78;;;;;;;9.79;58.77;103045.22;4817388;29;119300;-85
2022/02/26 09:36:46;;;;;;;31.30;6.05;;;;;;;9.73;58.77;103024.84;4832333;28;121865;-84
2022/02/26 09:39:12;;;;;;;29.88;6.30;;;;;;;10.07;57.88;103068.38;4808660;29;123056;-85
2022/02/26 09:41:50;;;;;;;30.77;6.03;;;;;;;9.62;57.71;102996.59;4822436;29;119157;-85
2022/02/26 09:44:22;;;;;;;30.50;5.57;;;;;;;10.08;57.88;103072.69;4784433;29;121643;-86
2022/02/26 09:46:51;;;;;;;28.92;6.13;;;;;;;10.09;56.90;103057.81;4808805;29;120076;-87
2022/02/26 09:49:17;;;;;;;25.05;5.15;;;;;;;9.90;56.64;103011.53;4808803;29;119537;-86
2022/02/26 09:51:52;;;;;;;22.83;5.95;;;;;;;9.82;57.15;102997.81;4797191;29;122463;-86
2022/02/26 09:54:18;;;;;;;26.23;5.78;;;;;;;9.99;55.86;103020.19;4798831;29;119564;-86
2022/02/26 09:56:44;;;;;;;33.30;7.15;;;;;;;10.14;55.64;103046.44;4796565;29;120350;-86
2022/02/26 09:59:30;;;;;;;;;;;;;;;;;;;;;
2022/02/26 10:02:09;;;;;;;27.25;5.10;;;;;;;10.51;56.28;103095.53;4792277;29;119690;-85
2022/02/26 10:04:51;;;;;;;22.67;4.57;;;;;;;10.25;56.69;103043.75;4796412;29;121807;-86
2022/02/26 10:07:22;;;;;;;30.50;5.20;;;;;;;10.07;56.38;103016.28;4809452;29;120274;-85
2022/02/26 10:09:53;;;;;;;24.23;4.28;;;;;;;10.45;55.92;103061.41;4810208;29;119682;-87
2022/02/26 10:12:20;;;;;;;25.60;7.10;;;;;;;10.68;56.08;103099.47;4801872;29;122232;-83
2022/02/26 10:14:54;;;;;;;18.83;4.30;;;;;;;10.40;53.96;103054.34;4809358;29;120226;-84
2022/02/26 10:17:32;;;;;;;23.13;4.07;;;;;;;10.77;53.55;103095.13;4783205;29;122229;-86
2022/02/26 10:20:18;;;;;;;19.58;3.72;;;;;;;10.63;53.89;103069.63;4797394;29;123047;-86
2022/02/26 10:22:51;;;;;;;27.83;6.80;;;;;;;10.56;53.74;103069.66;4810232;29;119940;-86
2022/02/26 10:25:28;;;;;;;23.23;5.33;;;;;;;10.48;53.56;103043.38;4811664;29;121424;-86
2022/02/26 10:27:59;;;;;;;15.98;3.67;;;;;;;10.83;50.17;103097.47;4810670;29;120065;-86
2022/02/26 10:30:37;;;;;;;26.00;5.82;;;;;;;10.48;51.82;103051.63;4796955;29;119729;-86
2022/02/26 10:33:17;;;;;;;17.83;4.20;;;;;;;10.74;52.48;103076.72;4791490;29;122333;-88
2022/02/26 10:35:54;;;;;;;20.17;3.95;;;;;;;10.99;51.79;103108.84;4800625;29;120029;-88
2022/02/26 10:38:24;;;;;;;18.25;3.30;;;;;;;10.58;53.07;103056.31;4796353;29;122388;-86
2022/02/26 10:41:00;;;;;;;16.63;3.55;;;;;;;11.03;53.37;103110.41;4790070;29;123609;-85
2022/02/26 10:43:48;;;;;;;17.35;3.70;;;;;;;11.13;53.19;103121.78;4802480;29;120815;-86
2022/02/26 10:46:45;;;;;;;21.17;3.53;;;;;;;11.05;53.00;103102.56;4799232;29;120753;-87
2022/02/26 10:49:16;;;;;;;17.95;3.58;;;;;;;10.99;50.44;103093.16;4769367;29;122909;-87
2022/02/26 10:51:51;;;;;;;13.48;3.03;;;;;;;10.99;51.00;103082.16;4793826;29;121088;-87
2022/02/26 10:54:23;;;;;;;21.05;5.80;;;;;;;11.01;51.69;103085.31;4806782;29;121956;-87
2022/02/26 10:56:52;;;;;;;17.20;3.42;;;;;;;11.24;49.58;103120.59;4790105;28;122100;-86
2022/02/26 10:59:42;;;;;;;21.67;5.03;;;;;;;10.98;48.94;103077.06;4811365;29;120206;-87
2022/02/26 11:02:18;;;;;;;21.23;6.82;;;;;;;10.99;50.49;103073.16;4789309;29;120326;-88
2022/02/26 11:04:48;;;;;;;17.25;5.25;;;;;;;10.88;49.00;103059.41;4790001;29;120776;-85
2022/02/26 11:07:15;;;;;;;13.98;4.65;;;;;;;11.08;48.15;103082.53;4806930;29;122053;-87
2022/02/26 11:09:47;;;;;;;12.95;3.60;;;;;;;11.12;49.18;103096.28;4793886;29;120361;-86
2022/02/26 11:12:17;;;;;;;14.27;2.65;;;;;;;11.04;50.30;103086.47;4796004;29;119919;-87
2022/02/26 11:14:49;;;;;;;11.55;2.72;;;;;;;11.09;50.74;103080.56;4792326;29;122189;-86
2022/02/26 11:17:16;;;;;;;10.40;2.35;;;;;;;11.20;49.62;103091.56;4809277;29;120331;-87
2022/02/26 11:19:47;;;;;;;11.60;2.80;;;;;;;10.93;48.96;103045.31;4811986;29;120602;-87
2022/02/26 11:22:18;;;;;;;13.80;3.67;;;;;;;11.26;50.14;103096.25;4799968;29;119680;-85
2022/02/26 11:24:44;;;;;;;14.07;3.42;;;;;;;11.28;50.16;103099.38;4809383;29;119988;-87
2022/02/26 11:27:12;;;;;;;14.55;3.13;;;;;;;11.47;48.70;103128.38;4796220;29;120149;-88
2022/02/26 11:29:41;;;;;;;15.15;2.85;;;;;;;10.97;46.58;103048.03;4809071;29;120488;-87
2022/02/26 11:32:15;;;;;;;16.90;3.92;;;;;;;11.30;49.03;103102.50;4807735;29;120977;-87
2022/02/26 11:34:42;;;;;;;13.32;3.10;;;;;;;11.53;48.61;103137.78;4804607;29;122072;-85
2022/02/26 11:37:17;;;;;;;14.30;2.50;;;;;;;11.44;50.35;103112.69;4787134;29;120085;-84
2022/02/26 11:40:04;;;;;;;12.30;2.60;;;;;;;11.37;49.81;103097.00;4803736;29;119876;-86
2022/02/26 11:42:30;;;;;;;15.07;3.22;;;;;;;11.30;49.71;103085.25;4795362;29;122254;-88
2022/02/26 11:45:03;;;;;;;8.70;2.40;;;;;;;11.67;48.84;103126.75;4786042;29;119761;-87
2022/02/26 11:47:38;;;;;;;19.60;3.03;;;;;;;11.51;49.61;103100.88;4788707;29;121897;-87
2022/02/26 11:50:14;;;;;;;14.93;2.75;;;;;;;11.55;48.13;103105.19;4792179;29;121267;-88
2022/02/26 11:52:45;;;;;;;10.75;2.38;;;;;;;11.74;48.58;103125.16;4791682;29;119669;-86
2022/02/26 11:55:41;;;;;;;13.30;2.83;;;;;;;11.66;46.65;103113.41;4787477;29;119858;-87
2022/02/26 11:58:18;;;;;;;12.15;2.42;;;;;;;11.75;47.94;103124.75;4801446;29;120019;-88
2022/02/26 12:00:53;;;;;;;12.50;2.55;;;;;;;11.75;44.94;103121.22;4805766;29;119710;-88
2022/02/26 12:03:44;;;;;;;12.48;2.35;;;;;;;11.77;47.00;103124.34;4786819;29;121995;-87
2022/02/26 12:06:09;;;;;;;13.20;2.53;;;;;;;11.76;46.76;103112.56;4789210;29;120319;-87
2022/02/26 12:08:44;;;;;;;11.02;2.05;;;;;;;11.75;46.92;103104.72;4790934;29;119610;-87
2022/02/26 12:11:31;;;;;;;10.50;2.72;;;;;;;11.84;48.28;103121.63;4801640;29;120262;-87